createdAt,value
2018-09-01T00:02:17.386Z,95.30
2018-09-01T00:05:42.087Z,95.79
2018-09-01T00:09:07.787Z,95.44
2018-09-01T00:12:32.566Z,95.74
2018-09-01T00:15:57.619Z,95.37
2018-09-01T00:19:22.305Z,95.89
2018-09-01T00:22:46.944Z,96.75
2018-09-01T00:26:11.629Z,95.67
2018-09-01T00:29:36.334Z,95.29
2018-09-01T00:33:00.963Z,94.93
2018-09-01T00:36:26.235Z,96.14
2018-09-01T00:39:50.855Z,95.69
2018-09-01T00:43:15.509Z,96.06
2018-09-01T00:46:40.183Z,94.62
2018-09-01T00:50:04.931Z,94.21
2018-09-01T00:53:29.559Z,94.77
2018-09-01T00:56:54.183Z,95.23
2018-09-01T01:00:18.847Z,95.60
2018-09-01T01:03:43.497Z,96.30
2018-09-01T01:07:08.119Z,94.73
2018-09-01T01:10:32.805Z,96.85
2018-09-01T01:13:57.451Z,96.99
2018-09-01T01:17:22.059Z,96.65
2018-09-01T01:20:46.682Z,96.09
2018-09-01T01:24:11.333Z,96.74
2018-09-01T01:27:36.175Z,95.67
2018-09-01T01:31:00.807Z,96.80
2018-09-01T01:34:25.490Z,97.22
2018-09-01T01:37:50.155Z,95.67
2018-09-01T01:41:14.781Z,95.66
2018-09-01T01:44:39.461Z,95.53
2018-09-01T01:48:04.105Z,95.55
2018-09-01T01:51:28.757Z,95.25
2018-09-01T01:54:53.454Z,95.39
2018-09-01T01:58:18.080Z,95.28
2018-09-01T02:01:42.735Z,95.45
2018-09-01T02:05:09.529Z,95.22
2018-09-01T02:08:34.215Z,93.96
2018-09-01T02:11:58.858Z,94.24
2018-09-01T02:15:23.525Z,93.88
2018-09-01T02:18:48.481Z,95.41
2018-09-01T02:22:13.148Z,95.30
2018-09-01T02:25:37.861Z,95.15
2018-09-01T02:29:02.516Z,95.18
2018-09-01T02:32:27.198Z,95.69
2018-09-01T02:35:51.859Z,95.78
2018-09-01T02:39:16.537Z,94.92
2018-09-01T02:42:41.162Z,96.26
2018-09-01T02:46:05.827Z,96.01
2018-09-01T02:49:30.468Z,94.04
2018-09-01T02:52:55.109Z,93.73
2018-09-01T02:56:19.792Z,94.72
2018-09-01T02:59:44.465Z,94.86
2018-09-01T03:03:09.151Z,95.41
2018-09-01T03:06:59.748Z,95.35
2018-09-01T03:10:24.377Z,95.76
2018-09-01T03:13:49.016Z,95.49
2018-09-01T03:17:13.809Z,95.71
2018-09-01T03:20:38.465Z,95.29
2018-09-01T03:24:03.148Z,95.88
2018-09-01T03:27:27.803Z,96.84
2018-09-01T03:30:52.472Z,96.27
2018-09-01T03:34:17.131Z,95.80
2018-09-01T03:37:41.818Z,96.05
2018-09-01T03:41:06.686Z,95.85
2018-09-01T03:44:31.352Z,94.65
2018-09-01T03:47:56.141Z,95.05
2018-09-01T03:51:20.812Z,93.91
2018-09-01T03:54:45.521Z,93.03
2018-09-01T03:58:10.323Z,94.15
2018-09-01T04:01:34.974Z,95.81
2018-09-01T04:04:59.665Z,95.26
2018-09-01T04:08:24.451Z,95.83
2018-09-01T04:11:49.133Z,96.07
2018-09-01T04:15:13.867Z,96.65
2018-09-01T04:18:38.553Z,96.33
2018-09-01T04:22:03.213Z,95.63
2018-09-01T04:25:27.885Z,96.26
2018-09-01T04:28:52.553Z,95.90
2018-09-01T04:32:17.297Z,95.90
2018-09-01T04:35:42.006Z,95.92
2018-09-01T04:39:09.367Z,96.49
2018-09-01T04:42:34.044Z,96.69
2018-09-01T04:45:58.744Z,97.29
2018-09-01T04:49:23.465Z,96.86
2018-09-01T04:52:48.116Z,98.19
2018-09-01T04:56:12.829Z,97.08
2018-09-01T04:59:37.540Z,97.72
2018-09-01T05:03:02.274Z,98.61
2018-09-01T05:06:27.025Z,97.86
2018-09-01T05:09:51.836Z,99.82
2018-09-01T05:13:16.630Z,99.12
2018-09-01T05:16:41.425Z,98.55
2018-09-01T05:20:06.336Z,98.34
2018-09-01T05:23:31.059Z,98.14
2018-09-01T05:26:56.556Z,96.12
2018-09-01T05:30:21.420Z,96.48
2018-09-01T05:33:46.149Z,95.15
2018-09-01T05:37:10.829Z,95.79
2018-09-01T05:40:35.506Z,95.74
2018-09-01T05:44:00.232Z,96.40
2018-09-01T05:47:25.076Z,95.41
2018-09-01T05:50:49.802Z,95.93
2018-09-01T05:54:14.488Z,95.66
2018-09-01T05:57:39.181Z,93.94
2018-09-01T06:01:03.964Z,92.67
2018-09-01T06:04:28.663Z,94.37
2018-09-01T06:07:53.352Z,94.70
2018-09-01T06:11:18.037Z,93.35
2018-09-01T06:14:50.845Z,93.05
2018-09-01T06:18:15.507Z,94.29
2018-09-01T06:21:40.195Z,94.01
2018-09-01T06:25:06.327Z,94.70
2018-09-01T06:28:36.111Z,93.77
2018-09-01T06:32:03.142Z,94.04
2018-09-01T06:35:27.902Z,95.42
2018-09-01T06:38:52.698Z,94.55
2018-09-01T06:42:18.647Z,94.53
2018-09-01T06:45:47.238Z,94.58
2018-09-01T06:49:12.402Z,93.21
2018-09-01T06:52:37.345Z,94.01
2018-09-01T06:56:02.492Z,92.25
2018-09-01T06:59:27.676Z,91.83
2018-09-01T07:02:54.973Z,93.35
2018-09-01T07:06:19.892Z,92.50
2018-09-01T07:09:44.682Z,90.45
2018-09-01T07:13:09.491Z,93.25
2018-09-01T07:16:34.536Z,93.07
2018-09-01T07:19:59.504Z,92.74
2018-09-01T07:23:25.670Z,92.45
2018-09-01T07:26:50.688Z,91.83
2018-09-01T07:33:53.168Z,90.17
2018-09-01T07:37:18.307Z,89.60
2018-09-01T07:40:43.215Z,89.93
2018-09-01T07:44:08.554Z,89.28
2018-09-01T07:47:33.511Z,90.39
2018-09-01T07:50:58.509Z,88.95
2018-09-01T07:54:23.397Z,89.85
2018-09-01T07:57:48.198Z,88.08
2018-09-01T08:01:12.918Z,88.98
2018-09-01T08:04:37.706Z,88.97
2018-09-01T08:08:02.384Z,87.86
2018-09-01T08:11:27.061Z,88.18
2018-09-01T08:14:52.175Z,87.32
2018-09-01T08:18:16.905Z,86.26
2018-09-01T08:21:41.994Z,85.08
2018-09-01T08:25:07.432Z,84.85
2018-09-01T08:28:32.572Z,84.22
2018-09-01T08:31:57.986Z,84.24
2018-09-01T08:35:22.991Z,85.37
2018-09-01T08:38:48.146Z,84.53
2018-09-01T08:42:13.276Z,85.42
2018-09-01T08:45:39.414Z,84.53
2018-09-01T08:49:17.323Z,82.47
2018-09-01T08:52:42.616Z,82.84
2018-09-01T08:56:08.691Z,83.14
2018-09-01T08:59:34.463Z,83.78
2018-09-01T09:02:59.948Z,82.14
2018-09-01T09:06:25.412Z,82.58
2018-09-01T09:09:50.848Z,82.64
2018-09-01T09:13:16.439Z,82.84
2018-09-01T09:16:41.814Z,83.65
2018-09-01T09:20:07.042Z,82.99
2018-09-01T09:23:32.403Z,80.15
2018-09-01T09:26:57.578Z,82.78
2018-09-01T09:30:22.612Z,80.60
2018-09-01T09:33:47.802Z,81.46
2018-09-01T09:37:12.798Z,82.14
2018-09-01T09:40:38.280Z,81.31
2018-09-01T09:44:03.251Z,78.03
2018-09-01T09:47:28.150Z,81.15
2018-09-01T09:50:52.947Z,79.01
2018-09-01T09:54:18.036Z,81.05
2018-09-01T09:57:42.903Z,79.65
2018-09-01T10:01:11.831Z,80.41
2018-09-01T10:04:36.675Z,81.46
2018-09-01T10:08:01.900Z,83.96
2018-09-01T10:11:26.852Z,85.20
2018-09-01T10:14:52.129Z,87.07
2018-09-01T10:18:17.158Z,83.80
2018-09-01T10:21:43.468Z,86.74
2018-09-01T10:25:08.964Z,86.46
2018-09-01T10:28:34.660Z,86.05
2018-09-01T10:32:00.177Z,87.54
2018-09-01T10:35:25.824Z,88.54
2018-09-01T10:38:51.053Z,90.05
2018-09-01T10:42:16.206Z,90.46
2018-09-01T10:45:41.536Z,89.48
2018-09-01T10:49:06.962Z,90.72
2018-09-01T10:52:31.851Z,90.93
2018-09-01T10:55:56.848Z,92.33
2018-09-01T10:59:21.852Z,87.99
2018-09-01T11:02:46.874Z,91.22
2018-09-01T11:06:11.718Z,90.95
2018-09-01T11:09:36.729Z,91.62
2018-09-01T11:13:01.655Z,92.21
2018-09-01T11:16:26.705Z,91.54
2018-09-01T11:19:51.662Z,92.21
2018-09-01T11:23:16.873Z,90.48
2018-09-01T11:26:41.603Z,91.57
2018-09-01T11:30:08.321Z,91.55
2018-09-01T11:33:33.057Z,90.69
2018-09-01T11:36:57.915Z,89.21
2018-09-01T11:40:22.674Z,86.51
2018-09-01T11:43:47.517Z,83.29
2018-09-01T11:47:12.236Z,83.60
2018-09-01T11:50:36.984Z,82.36
2018-09-01T11:54:01.742Z,82.42
2018-09-01T11:57:26.423Z,80.22
2018-09-01T12:00:51.234Z,81.44
2018-09-01T12:04:15.961Z,81.00
2018-09-01T12:07:40.634Z,81.16
2018-09-01T12:11:05.459Z,80.85
2018-09-01T12:14:30.346Z,80.05
2018-09-01T12:17:54.970Z,80.54
2018-09-01T12:21:19.682Z,79.72
2018-09-01T12:24:44.422Z,78.39
2018-09-01T12:28:09.128Z,79.44
2018-09-01T12:31:33.991Z,77.58
2018-09-01T12:34:58.676Z,77.98
2018-09-01T12:38:23.376Z,81.32
2018-09-01T12:41:48.095Z,79.51
2018-09-01T12:45:12.773Z,81.34
2018-09-01T12:48:37.524Z,78.09
2018-09-01T12:52:02.288Z,78.64
2018-09-01T12:55:27.004Z,77.70
2018-09-01T12:58:51.624Z,76.84
2018-09-01T13:02:21.550Z,76.82
2018-09-01T13:05:46.463Z,77.03
2018-09-01T13:09:17.134Z,77.20
2018-09-01T13:12:41.894Z,77.65
2018-09-01T13:16:06.675Z,77.17
2018-09-01T13:19:31.558Z,75.94
2018-09-01T13:22:56.208Z,77.95
2018-09-01T13:26:20.908Z,76.82
2018-09-01T13:29:46.449Z,79.98
2018-09-01T13:33:11.990Z,77.17
2018-09-01T13:36:37.501Z,75.70
2018-09-01T13:40:03.430Z,74.05
2018-09-01T13:43:28.623Z,74.42
2018-09-01T13:46:54.294Z,74.64
2018-09-01T13:50:19.064Z,75.58
2018-09-01T13:53:45.534Z,75.41
2018-09-01T13:57:10.241Z,77.46
2018-09-01T14:00:35.166Z,79.43
2018-09-01T14:04:00.147Z,78.82
2018-09-01T14:10:56.261Z,79.40
2018-09-01T14:14:21.108Z,82.36
2018-09-01T14:17:45.804Z,80.56
2018-09-01T14:21:10.643Z,81.36
2018-09-01T14:24:35.302Z,83.36
2018-09-01T14:28:00.299Z,84.04
2018-09-01T14:31:25.084Z,82.25
2018-09-01T14:34:49.953Z,82.49
2018-09-01T14:38:14.709Z,83.69
2018-09-01T14:41:39.660Z,83.77
2018-09-01T14:45:04.502Z,84.96
2018-09-01T14:48:29.373Z,84.37
2018-09-01T14:55:27.252Z,85.14
2018-09-01T14:58:52.421Z,85.71
2018-09-01T15:02:17.298Z,86.56
2018-09-01T15:05:42.090Z,87.14
2018-09-01T15:09:07.943Z,86.27
2018-09-01T15:12:32.782Z,84.81
2018-09-01T15:15:57.610Z,85.40
2018-09-01T15:19:22.622Z,87.23
2018-09-01T15:22:47.340Z,86.50
2018-09-01T15:26:12.231Z,85.57
2018-09-01T15:29:38.258Z,86.50
2018-09-01T15:33:03.864Z,87.59
2018-09-01T15:36:28.981Z,85.96
2018-09-01T15:39:53.984Z,86.11
2018-09-01T15:43:20.900Z,85.99
2018-09-01T15:46:47.175Z,86.10
2018-09-01T15:50:13.151Z,86.66
2018-09-01T15:53:38.374Z,86.34
2018-09-01T15:57:03.600Z,88.37
2018-09-01T16:00:28.712Z,88.00
2018-09-01T16:03:53.742Z,89.12
2018-09-01T16:07:19.029Z,88.68
2018-09-01T16:10:44.170Z,88.72
2018-09-01T16:14:09.316Z,86.89
2018-09-01T16:17:34.786Z,85.48
2018-09-01T16:21:00.010Z,87.11
2018-09-01T16:24:34.211Z,85.35
2018-09-01T16:28:08.139Z,86.66
2018-09-01T16:31:53.138Z,86.02
2018-09-01T16:35:25.870Z,85.21
2018-09-01T16:39:09.844Z,85.69
2018-09-01T16:43:03.826Z,85.52
2018-09-01T16:46:38.028Z,86.91
2018-09-01T16:50:16.670Z,84.68
2018-09-01T16:53:43.326Z,83.26
2018-09-01T16:57:09.436Z,85.07
2018-09-01T17:00:35.403Z,85.11
2018-09-01T17:04:04.045Z,85.12
2018-09-01T17:07:30.352Z,84.95
2018-09-01T17:11:25.659Z,83.79
2018-09-01T17:16:01.533Z,84.77
2018-09-01T17:19:43.160Z,86.19
2018-09-01T18:05:26.666Z,85.87
2018-09-01T18:16:48.724Z,86.44
2018-09-01T18:20:13.766Z,88.25
2018-09-01T18:23:39.162Z,87.55
2018-09-01T18:27:04.870Z,87.19
2018-09-01T18:30:31.334Z,88.17
2018-09-01T18:33:56.339Z,87.16
2018-09-01T18:37:26.806Z,87.24
2018-09-01T18:40:52.292Z,87.33
2018-09-01T18:44:17.702Z,87.39
2018-09-01T18:47:50.083Z,88.61
2018-09-01T18:51:15.114Z,88.09
2018-09-01T18:54:40.134Z,88.46
2018-09-01T18:58:05.986Z,89.28
2018-09-01T19:01:33.094Z,90.44
2018-09-01T19:04:59.014Z,89.21
2018-09-01T19:08:23.966Z,88.81
2018-09-01T19:11:50.102Z,88.76
2018-09-01T19:15:15.900Z,89.31
2018-09-01T19:18:48.983Z,88.36
2018-09-01T19:22:16.665Z,86.77
2018-09-01T19:25:42.416Z,86.96
2018-09-01T19:29:07.534Z,85.77
2018-09-01T19:32:33.978Z,87.31
2018-09-01T19:39:48.688Z,87.71
2018-09-01T19:43:14.472Z,87.66
2018-09-01T19:46:40.006Z,87.82
2018-09-01T19:50:05.143Z,85.90
2018-09-01T19:53:30.013Z,86.42
2018-09-01T19:56:56.281Z,86.94
2018-09-01T20:00:21.729Z,85.80
2018-09-01T20:03:47.303Z,85.44
2018-09-01T20:07:12.268Z,85.42
2018-09-01T20:10:37.963Z,83.92
2018-09-01T20:14:03.620Z,85.13
2018-09-01T20:17:28.708Z,85.81
2018-09-01T20:20:53.812Z,85.08
2018-09-01T20:24:19.658Z,85.64
2018-09-01T20:27:45.044Z,84.97
2018-09-01T20:31:11.653Z,86.35
2018-09-01T20:34:40.951Z,88.22
2018-09-01T20:38:09.539Z,86.21
2018-09-01T20:41:35.685Z,85.92
2018-09-01T20:45:01.185Z,85.93
2018-09-01T20:48:26.829Z,87.09
2018-09-01T20:51:52.190Z,86.08
2018-09-01T20:55:17.663Z,86.08
2018-09-01T20:58:42.635Z,86.39
2018-09-01T21:02:08.259Z,86.41
2018-09-01T21:05:33.474Z,86.54
2018-09-01T21:08:58.578Z,87.17
2018-09-01T21:12:23.729Z,86.98
2018-09-01T21:15:48.580Z,86.84
2018-09-01T21:19:13.437Z,86.46
2018-09-01T21:22:38.279Z,86.25
2018-09-01T21:26:03.178Z,84.54
2018-09-01T21:29:28.589Z,85.43
2018-09-01T21:32:53.590Z,86.18
2018-09-01T21:36:18.576Z,85.38
2018-09-01T21:39:43.550Z,85.52
2018-09-01T21:43:08.399Z,85.09
2018-09-01T21:46:33.591Z,86.28
2018-09-01T21:49:58.437Z,85.84
2018-09-01T21:53:23.080Z,85.72
2018-09-01T21:56:47.759Z,87.13
2018-09-01T22:00:12.643Z,87.99
2018-09-01T22:03:41.329Z,89.65
2018-09-01T22:07:06.075Z,89.83
2018-09-01T22:10:30.731Z,89.31
2018-09-01T22:13:55.420Z,88.86
2018-09-01T22:17:20.618Z,89.24
2018-09-01T22:20:45.237Z,88.57
2018-09-01T22:24:10.004Z,89.26
2018-09-01T22:27:34.618Z,87.67
2018-09-01T22:30:59.303Z,88.91
2018-09-01T22:34:23.908Z,89.37
2018-09-01T22:37:48.638Z,89.78
2018-09-01T22:41:13.307Z,89.35
2018-09-01T22:44:37.970Z,89.25
2018-09-01T22:48:02.773Z,88.98
2018-09-01T22:51:27.588Z,89.15
2018-09-01T22:54:52.334Z,89.25
2018-09-01T22:58:17.001Z,89.80
2018-09-01T23:01:41.664Z,88.38
2018-09-01T23:05:06.333Z,89.20
2018-09-01T23:08:30.964Z,89.16
2018-09-01T23:11:55.616Z,89.22
2018-09-01T23:15:20.298Z,89.24
2018-09-01T23:18:45.188Z,89.23
2018-09-01T23:22:09.853Z,88.90
2018-09-01T23:25:34.545Z,90.74
2018-09-01T23:28:59.270Z,92.32
2018-09-01T23:32:24.199Z,88.63
2018-09-01T23:35:49.857Z,91.00
2018-09-01T23:39:14.518Z,90.86
2018-09-01T23:42:39.180Z,90.94
2018-09-01T23:46:03.843Z,91.18
2018-09-01T23:49:28.489Z,91.08
2018-09-01T23:52:54.098Z,89.50
2018-09-01T23:56:18.714Z,88.49
2018-09-01T23:59:43.322Z,87.49
